createdAt,value
2023-03-29T00:01:34.987Z,83.51
2023-03-29T00:04:04.929Z,82.91
2023-03-29T00:06:33.853Z,82.30
2023-03-29T00:09:05.554Z,82.37
2023-03-29T00:11:34.809Z,82.25
2023-03-29T00:14:02.317Z,82.35
2023-03-29T00:16:37.201Z,82.71
2023-03-29T00:19:06.651Z,83.11
2023-03-29T00:21:33.908Z,83.25
2023-03-29T00:24:02.347Z,83.58
2023-03-29T00:26:29.812Z,83.49
2023-03-29T00:28:58.441Z,83.71
2023-03-29T00:31:26.507Z,83.77
2023-03-29T00:33:59.857Z,83.26
2023-03-29T00:36:28.045Z,83.08
2023-03-29T00:38:56.827Z,83.11
2023-03-29T00:41:24.278Z,83.74
2023-03-29T00:44:02.793Z,84.67
2023-03-29T00:46:32.395Z,85.49
2023-03-29T00:49:15.694Z,86.25
2023-03-29T00:51:44.062Z,86.63
2023-03-29T00:54:18.957Z,87.12
2023-03-29T00:56:51.547Z,87.85
2023-03-29T00:59:33.014Z,87.98
2023-03-29T01:02:02.827Z,88.15
2023-03-29T01:04:36.563Z,88.22
2023-03-29T01:07:31.108Z,88.79
2023-03-29T01:10:09.512Z,88.83
2023-03-29T01:12:43.088Z,88.58
2023-03-29T01:15:20.315Z,87.81
2023-03-29T01:17:51.201Z,88.33
2023-03-29T01:20:46.429Z,88.88
2023-03-29T01:23:47.048Z,89.17
2023-03-29T01:26:30.709Z,89.21
2023-03-29T01:29:05.007Z,88.78
2023-03-29T01:31:39.042Z,88.90
2023-03-29T01:34:22.200Z,88.61
2023-03-29T01:37:04.754Z,88.72
2023-03-29T01:39:35.450Z,89.07
2023-03-29T01:42:24.668Z,89.43
2023-03-29T01:45:15.208Z,90.31
2023-03-29T01:47:58.582Z,91.41
2023-03-29T01:50:40.911Z,91.77
2023-03-29T01:53:18.356Z,92.90
2023-03-29T01:55:52.181Z,94.01
2023-03-29T01:58:24.226Z,94.93
2023-03-29T02:00:55.548Z,96.89
2023-03-29T02:03:27.452Z,97.40
2023-03-29T02:05:57.430Z,97.82
2023-03-29T02:08:31.356Z,97.45
2023-03-29T02:10:59.141Z,97.03
2023-03-29T02:13:27.649Z,96.34
2023-03-29T02:15:55.456Z,95.77
2023-03-29T02:18:24.054Z,95.85
2023-03-29T02:20:52.453Z,96.13
2023-03-29T02:23:23.731Z,96.68
2023-03-29T02:25:57.238Z,96.44
2023-03-29T02:28:26.460Z,96.45
2023-03-29T02:31:15.367Z,96.69
2023-03-29T02:34:01.598Z,96.57
2023-03-29T02:36:34.643Z,96.42
2023-03-29T02:39:04.890Z,96.79
2023-03-29T02:41:33.078Z,96.51
2023-03-29T02:44:02.425Z,96.42
2023-03-29T02:46:38.169Z,97.40
2023-03-29T02:49:06.994Z,98.64
2023-03-29T02:51:36.968Z,99.67
2023-03-29T02:54:18.796Z,100.00
2023-03-29T02:56:49.488Z,100.00
2023-03-29T02:59:22.934Z,99.35
2023-03-29T03:01:50.692Z,99.70
2023-03-29T03:04:18.883Z,99.37
2023-03-29T03:06:45.936Z,98.53
2023-03-29T03:09:14.994Z,98.02
2023-03-29T03:11:42.525Z,97.62
2023-03-29T03:14:11.249Z,97.21
2023-03-29T03:16:39.257Z,97.63
2023-03-29T03:19:07.367Z,98.24
2023-03-29T03:21:40.766Z,98.59
2023-03-29T03:24:08.390Z,98.72
2023-03-29T03:26:36.273Z,98.64
2023-03-29T03:29:03.638Z,98.38
2023-03-29T03:31:31.299Z,97.53
2023-03-29T03:33:59.153Z,97.23
2023-03-29T03:36:31.889Z,97.05
2023-03-29T03:39:02.057Z,97.14
2023-03-29T03:41:29.605Z,97.60
2023-03-29T03:43:59.641Z,98.42
2023-03-29T03:46:29.695Z,99.84
2023-03-29T03:48:57.648Z,100.00
2023-03-29T03:51:25.091Z,100.00
2023-03-29T03:53:52.486Z,100.00
2023-03-29T03:56:21.998Z,100.00
2023-03-29T03:58:49.490Z,100.00
2023-03-29T04:01:17.475Z,100.00
2023-03-29T04:03:44.885Z,100.00
2023-03-29T04:06:12.485Z,100.00
2023-03-29T04:08:46.027Z,99.87
2023-03-29T04:11:13.472Z,99.60
2023-03-29T04:13:41.915Z,99.65
2023-03-29T04:16:09.547Z,100.00
2023-03-29T04:18:37.913Z,99.84
2023-03-29T04:21:05.703Z,98.53
2023-03-29T04:23:32.736Z,98.80
2023-03-29T04:26:00.206Z,99.80
2023-03-29T04:28:27.769Z,100.00
2023-03-29T04:30:57.152Z,100.00
2023-03-29T04:33:25.602Z,100.00
2023-03-29T04:35:54.116Z,100.00
2023-03-29T04:38:23.638Z,100.00
2023-03-29T04:40:51.675Z,100.00
2023-03-29T04:43:19.122Z,100.00
2023-03-29T04:45:46.428Z,100.00
2023-03-29T04:48:14.022Z,100.00
2023-03-29T04:50:41.830Z,100.00
2023-03-29T04:53:09.482Z,100.00
2023-03-29T04:55:36.864Z,99.90
2023-03-29T04:58:05.143Z,99.41
2023-03-29T05:00:32.290Z,98.55
2023-03-29T05:02:59.785Z,97.97
2023-03-29T05:05:27.320Z,97.55
2023-03-29T05:07:55.198Z,97.09
2023-03-29T05:10:23.760Z,96.37
2023-03-29T05:12:54.413Z,95.89
2023-03-29T05:15:22.382Z,96.69
2023-03-29T05:17:52.701Z,97.95
2023-03-29T05:20:22.512Z,98.34
2023-03-29T05:22:50.181Z,98.57
2023-03-29T05:25:19.880Z,97.83
2023-03-29T05:27:47.204Z,97.64
2023-03-29T05:30:15.704Z,96.14
2023-03-29T05:32:45.451Z,94.50
2023-03-29T05:35:12.772Z,93.36
2023-03-29T05:37:41.095Z,93.43
2023-03-29T05:40:10.647Z,94.05
2023-03-29T05:42:40.667Z,94.22
2023-03-29T05:45:09.651Z,94.47
2023-03-29T05:47:37.187Z,93.45
2023-03-29T05:50:05.063Z,91.89
2023-03-29T05:52:32.568Z,90.04
2023-03-29T05:54:59.907Z,89.20
2023-03-29T05:57:27.825Z,88.21
2023-03-29T05:59:55.421Z,87.03
2023-03-29T06:02:23.270Z,86.83
2023-03-29T06:04:52.152Z,86.59
2023-03-29T06:07:19.825Z,85.16
2023-03-29T06:09:47.971Z,84.40
2023-03-29T06:12:20.414Z,84.01
2023-03-29T06:14:50.822Z,80.61
2023-03-29T06:17:19.333Z,77.46
2023-03-29T06:19:48.768Z,74.42
2023-03-29T06:22:16.433Z,74.29
2023-03-29T06:24:43.725Z,74.34
2023-03-29T06:27:11.547Z,74.58
2023-03-29T06:29:38.583Z,74.11
2023-03-29T06:32:06.334Z,72.12
2023-03-29T06:34:33.453Z,70.29
2023-03-29T06:37:01.104Z,69.44
2023-03-29T06:39:28.442Z,69.70
2023-03-29T06:41:56.367Z,66.76
2023-03-29T06:44:23.991Z,64.93
2023-03-29T06:46:53.455Z,64.01
2023-03-29T06:49:22.789Z,63.94
2023-03-29T06:51:50.317Z,61.52
2023-03-29T06:54:20.012Z,62.14
2023-03-29T06:56:47.652Z,60.60
2023-03-29T06:59:14.784Z,60.62
2023-03-29T07:01:43.069Z,58.41
2023-03-29T07:04:11.454Z,59.57
2023-03-29T07:06:39.487Z,58.48
2023-03-29T07:09:13.210Z,59.48
2023-03-29T07:11:41.968Z,58.25
2023-03-29T07:14:10.040Z,57.55
2023-03-29T07:16:38.187Z,56.46
2023-03-29T07:19:05.828Z,55.24
2023-03-29T07:21:36.708Z,54.67
2023-03-29T07:24:07.058Z,54.68
2023-03-29T07:26:34.510Z,55.77
2023-03-29T07:29:01.753Z,56.01
2023-03-29T07:31:35.305Z,54.15
2023-03-29T07:34:06.890Z,54.03
2023-03-29T07:36:34.725Z,54.03
2023-03-29T07:39:02.258Z,51.95
2023-03-29T07:41:29.646Z,52.26
2023-03-29T07:43:57.387Z,53.24
2023-03-29T07:46:25.336Z,51.95
2023-03-29T07:48:52.572Z,52.37
2023-03-29T07:51:22.417Z,51.02
2023-03-29T07:53:50.162Z,50.17
2023-03-29T07:56:17.474Z,50.46
2023-03-29T07:58:46.926Z,48.97
2023-03-29T08:01:18.707Z,48.87
2023-03-29T08:03:48.745Z,47.42
2023-03-29T08:06:20.027Z,47.19
2023-03-29T08:08:47.748Z,46.71
2023-03-29T08:11:16.033Z,46.72
2023-03-29T08:13:44.711Z,48.97
2023-03-29T08:16:12.978Z,49.57
2023-03-29T08:18:40.520Z,43.86
2023-03-29T08:21:09.203Z,42.92
2023-03-29T08:23:37.508Z,44.60
2023-03-29T08:26:10.485Z,46.42
2023-03-29T08:28:40.024Z,43.25
2023-03-29T08:31:09.161Z,42.62
2023-03-29T08:33:37.586Z,43.68
2023-03-29T08:36:05.335Z,43.57
2023-03-29T08:38:32.894Z,44.04
2023-03-29T08:41:00.557Z,43.37
2023-03-29T08:43:35.335Z,45.33
2023-03-29T08:46:02.908Z,43.54
2023-03-29T08:48:54.035Z,43.16
2023-03-29T08:51:53.461Z,45.94
2023-03-29T08:54:34.353Z,42.00
2023-03-29T08:57:15.977Z,39.10
2023-03-29T08:59:45.858Z,42.16
2023-03-29T09:02:22.415Z,44.08
2023-03-29T09:04:53.291Z,41.80
2023-03-29T09:07:20.510Z,44.62
2023-03-29T09:09:50.723Z,41.28
2023-03-29T09:12:26.672Z,40.84
2023-03-29T09:15:15.683Z,40.60
2023-03-29T09:17:42.920Z,41.00
2023-03-29T09:20:12.988Z,36.81
2023-03-29T09:22:49.237Z,39.34
2023-03-29T09:25:53.400Z,40.50
2023-03-29T09:28:37.454Z,40.55
2023-03-29T09:31:37.560Z,40.86
2023-03-29T09:34:42.102Z,39.14
2023-03-29T09:37:22.918Z,40.15
2023-03-29T09:39:53.594Z,38.67
2023-03-29T09:42:22.200Z,39.49
2023-03-29T09:44:54.486Z,40.07
2023-03-29T09:47:45.394Z,39.71
2023-03-29T09:50:31.481Z,39.86
2023-03-29T09:52:59.377Z,39.98
2023-03-29T09:55:29.723Z,40.72
2023-03-29T09:58:12.643Z,40.56
2023-03-29T10:00:40.664Z,40.34
2023-03-29T10:03:10.626Z,40.61
2023-03-29T10:05:38.463Z,41.38
2023-03-29T10:08:19.582Z,40.72
2023-03-29T10:10:48.854Z,40.84
2023-03-29T10:13:31.009Z,41.88
2023-03-29T10:16:10.459Z,41.82
2023-03-29T10:18:42.828Z,41.28
2023-03-29T10:21:20.496Z,40.03
2023-03-29T10:23:49.682Z,40.07
2023-03-29T10:26:32.928Z,40.25
2023-03-29T10:29:03.620Z,39.79
2023-03-29T10:31:41.912Z,40.77
2023-03-29T10:34:14.355Z,40.71
2023-03-29T10:36:44.522Z,42.20
2023-03-29T10:39:16.715Z,40.98
2023-03-29T10:41:45.088Z,40.91
2023-03-29T10:44:33.264Z,42.06
2023-03-29T10:47:34.575Z,41.54
2023-03-29T10:50:06.009Z,40.96
2023-03-29T10:52:34.428Z,42.54
2023-03-29T10:55:01.971Z,42.16
2023-03-29T10:58:25.010Z,41.07
2023-03-29T11:00:58.686Z,40.06
2023-03-29T11:03:45.045Z,39.45
2023-03-29T11:06:21.306Z,39.09
2023-03-29T11:08:59.810Z,38.97
2023-03-29T11:11:56.217Z,38.83
2023-03-29T11:14:57.387Z,37.50
2023-03-29T11:17:39.617Z,38.77
2023-03-29T11:20:22.614Z,39.62
2023-03-29T11:23:16.768Z,38.84
2023-03-29T11:25:47.583Z,37.72
2023-03-29T11:28:53.350Z,39.26
2023-03-29T11:31:37.206Z,39.59
2023-03-29T11:34:34.232Z,39.05
2023-03-29T11:37:17.719Z,38.10
2023-03-29T11:39:50.788Z,39.13
2023-03-29T11:42:25.149Z,39.81
2023-03-29T11:44:56.086Z,40.55
2023-03-29T11:47:28.292Z,38.90
2023-03-29T11:50:01.184Z,40.68
2023-03-29T11:52:34.254Z,39.53
2023-03-29T11:55:15.779Z,42.01
2023-03-29T11:57:48.997Z,40.44
2023-03-29T12:00:39.332Z,39.50
2023-03-29T12:03:22.895Z,41.30
2023-03-29T12:06:12.645Z,39.54
2023-03-29T12:08:46.022Z,40.81
2023-03-29T12:11:29.239Z,40.84
2023-03-29T12:14:24.493Z,40.55
2023-03-29T12:17:03.497Z,41.41
2023-03-29T12:19:43.579Z,41.52
2023-03-29T12:22:11.322Z,41.53
2023-03-29T12:24:43.580Z,42.28
2023-03-29T12:27:57.899Z,41.62
2023-03-29T12:30:35.230Z,41.62
2023-03-29T12:33:33.033Z,40.87
2023-03-29T12:36:22.207Z,41.37
2023-03-29T12:38:53.072Z,40.46
2023-03-29T12:41:23.740Z,39.58
2023-03-29T12:43:51.472Z,39.42
2023-03-29T12:46:33.397Z,38.58
2023-03-29T12:49:15.247Z,38.10
2023-03-29T12:51:43.808Z,37.45
2023-03-29T12:54:16.933Z,36.09
2023-03-29T12:56:58.582Z,37.67
2023-03-29T12:59:38.547Z,37.76
2023-03-29T13:02:14.929Z,37.65
2023-03-29T13:04:43.886Z,37.34
2023-03-29T13:07:31.366Z,37.54
2023-03-29T13:10:10.090Z,38.29
2023-03-29T13:12:49.782Z,40.24
2023-03-29T13:15:20.313Z,40.58
2023-03-29T13:17:58.471Z,40.72
2023-03-29T13:21:01.076Z,40.25
2023-03-29T13:23:37.948Z,40.74
2023-03-29T13:26:27.427Z,38.66
2023-03-29T13:29:07.480Z,37.83
2023-03-29T13:31:41.578Z,37.39
2023-03-29T13:34:45.516Z,37.20
2023-03-29T13:37:37.794Z,39.56
2023-03-29T13:40:28.616Z,39.61
2023-03-29T13:43:21.973Z,37.09
2023-03-29T13:45:58.218Z,36.01
2023-03-29T13:48:33.853Z,35.30
2023-03-29T13:51:26.493Z,36.73
2023-03-29T13:54:02.596Z,37.12
2023-03-29T13:56:43.588Z,35.73
2023-03-29T13:59:20.352Z,36.09
2023-03-29T14:01:53.917Z,36.23
2023-03-29T14:04:47.114Z,37.55
2023-03-29T14:07:15.809Z,37.29
2023-03-29T14:09:50.094Z,36.34
2023-03-29T14:12:18.116Z,37.06
2023-03-29T14:14:58.329Z,37.21
2023-03-29T14:17:28.060Z,37.90
2023-03-29T14:20:00.817Z,37.64
2023-03-29T14:22:34.066Z,37.84
2023-03-29T14:25:14.408Z,38.21
2023-03-29T14:27:42.976Z,38.49
2023-03-29T14:30:23.587Z,36.58
2023-03-29T14:32:52.631Z,35.29
2023-03-29T14:35:27.522Z,36.89
2023-03-29T14:37:55.436Z,36.98
2023-03-29T14:40:23.949Z,36.63
2023-03-29T14:42:51.681Z,37.53
2023-03-29T14:45:23.572Z,38.00
2023-03-29T14:47:52.364Z,35.89
2023-03-29T14:50:26.510Z,36.86
2023-03-29T14:52:54.550Z,37.36
2023-03-29T14:55:24.226Z,39.03
2023-03-29T14:57:54.858Z,39.86
2023-03-29T15:00:30.361Z,40.11
2023-03-29T15:03:02.973Z,37.77
2023-03-29T15:05:39.206Z,37.05
2023-03-29T15:08:38.369Z,36.97
2023-03-29T15:11:24.291Z,36.97
2023-03-29T15:14:06.841Z,36.96
2023-03-29T15:16:41.016Z,37.14
2023-03-29T15:19:15.892Z,38.36
2023-03-29T15:21:48.209Z,38.45
2023-03-29T15:24:28.759Z,38.67
2023-03-29T15:27:03.764Z,38.88
2023-03-29T15:29:40.845Z,39.55
2023-03-29T15:32:10.003Z,39.62
2023-03-29T15:34:38.619Z,40.45
2023-03-29T15:37:07.892Z,41.31
2023-03-29T15:39:47.475Z,40.95
2023-03-29T15:42:14.994Z,43.01
2023-03-29T15:44:43.763Z,42.61
2023-03-29T15:47:12.370Z,43.54
2023-03-29T15:49:40.927Z,42.53
2023-03-29T15:52:08.475Z,43.03
2023-03-29T15:54:37.377Z,42.73
2023-03-29T15:57:07.957Z,42.66
2023-03-29T15:59:36.709Z,42.44
2023-03-29T16:02:04.684Z,42.57
2023-03-29T16:04:32.262Z,41.98
2023-03-29T16:06:59.707Z,42.59
2023-03-29T16:09:27.719Z,43.65
2023-03-29T16:11:55.489Z,41.35
2023-03-29T16:14:28.646Z,42.62
2023-03-29T16:16:59.208Z,42.30
2023-03-29T16:19:28.232Z,44.14
2023-03-29T16:21:58.059Z,45.25
2023-03-29T16:24:28.287Z,43.17
2023-03-29T16:26:56.690Z,43.48
2023-03-29T16:29:25.757Z,43.68
2023-03-29T16:31:54.211Z,43.79
2023-03-29T16:34:23.071Z,44.06
2023-03-29T16:36:53.354Z,44.46
2023-03-29T16:39:21.109Z,44.10
2023-03-29T16:41:50.536Z,44.30
2023-03-29T16:44:23.603Z,44.36
2023-03-29T16:46:58.293Z,44.00
2023-03-29T16:49:26.913Z,45.43
2023-03-29T16:51:54.610Z,44.58
2023-03-29T16:54:21.866Z,45.03
2023-03-29T16:56:51.045Z,44.46
2023-03-29T16:59:19.743Z,44.05
2023-03-29T17:01:47.408Z,43.47
2023-03-29T17:04:16.997Z,43.87
2023-03-29T17:06:44.295Z,43.55
2023-03-29T17:09:11.788Z,44.24
2023-03-29T17:11:39.798Z,45.68
2023-03-29T17:14:07.303Z,46.40
2023-03-29T17:16:34.687Z,47.44
2023-03-29T17:19:02.204Z,49.96
2023-03-29T17:21:31.072Z,50.22
2023-03-29T17:23:58.519Z,48.73
2023-03-29T17:26:27.325Z,48.96
2023-03-29T17:28:55.553Z,49.05
2023-03-29T17:31:22.883Z,49.90
2023-03-29T17:33:52.560Z,50.59
2023-03-29T17:36:24.354Z,51.18
2023-03-29T17:38:55.449Z,51.15
2023-03-29T17:41:23.200Z,51.01
2023-03-29T17:43:51.307Z,51.63
2023-03-29T17:46:23.178Z,52.12
2023-03-29T17:48:52.939Z,52.52
2023-03-29T17:51:23.888Z,52.44
2023-03-29T17:53:59.819Z,52.91
2023-03-29T17:56:29.284Z,52.47
2023-03-29T17:58:58.092Z,52.65
2023-03-29T18:01:26.081Z,53.27
2023-03-29T18:03:56.858Z,53.05
2023-03-29T18:06:31.116Z,53.36
2023-03-29T18:09:02.118Z,53.57
2023-03-29T18:11:29.956Z,53.47
2023-03-29T18:14:01.462Z,53.44
2023-03-29T18:16:29.598Z,53.54
2023-03-29T18:18:58.326Z,52.93
2023-03-29T18:21:27.774Z,53.14
2023-03-29T18:23:57.279Z,52.95
2023-03-29T18:26:27.714Z,53.01
2023-03-29T18:28:56.113Z,53.53
2023-03-29T18:31:24.193Z,53.72
2023-03-29T18:33:53.223Z,54.18
2023-03-29T18:36:21.445Z,54.79
2023-03-29T18:38:49.770Z,54.85
2023-03-29T18:41:18.873Z,55.13
2023-03-29T18:43:48.992Z,55.48
2023-03-29T18:46:18.668Z,55.38
2023-03-29T18:48:47.018Z,55.72
2023-03-29T18:51:16.913Z,55.67
2023-03-29T18:53:45.129Z,55.73
2023-03-29T18:56:13.628Z,56.16
2023-03-29T18:58:42.096Z,55.96
2023-03-29T19:01:11.421Z,55.66
2023-03-29T19:03:40.096Z,55.46
2023-03-29T19:06:08.576Z,55.19
2023-03-29T19:08:39.639Z,55.28
2023-03-29T19:11:11.105Z,54.96
2023-03-29T19:13:39.602Z,55.11
2023-03-29T19:16:08.977Z,55.22
2023-03-29T19:18:43.908Z,55.06
2023-03-29T19:21:14.239Z,55.15
2023-03-29T19:23:42.927Z,55.10
2023-03-29T19:26:12.407Z,55.45
2023-03-29T19:28:41.831Z,55.78
2023-03-29T19:31:10.222Z,56.08
2023-03-29T19:33:40.367Z,56.32
2023-03-29T19:36:14.372Z,56.18
2023-03-29T19:38:47.714Z,56.25
2023-03-29T19:41:17.497Z,56.64
2023-03-29T19:43:46.133Z,56.65
2023-03-29T19:46:16.432Z,56.32
2023-03-29T19:48:45.673Z,56.82
2023-03-29T19:51:13.733Z,56.86
2023-03-29T19:53:41.982Z,56.58
2023-03-29T19:56:11.343Z,57.09
2023-03-29T19:58:40.114Z,56.73
2023-03-29T20:01:08.303Z,56.65
2023-03-29T20:03:36.578Z,56.26
2023-03-29T20:06:04.862Z,56.52
2023-03-29T20:08:32.636Z,56.68
2023-03-29T20:11:03.333Z,56.36
2023-03-29T20:13:38.851Z,56.52
2023-03-29T20:16:08.535Z,56.63
2023-03-29T20:18:38.603Z,56.81
2023-03-29T20:21:10.191Z,57.14
2023-03-29T20:23:38.103Z,56.95
2023-03-29T20:26:07.989Z,57.07
2023-03-29T20:28:38.194Z,57.08
2023-03-29T20:31:08.281Z,57.20
2023-03-29T20:33:36.505Z,57.55
2023-03-29T20:36:07.096Z,57.52
2023-03-29T20:38:36.132Z,58.33
2023-03-29T20:41:05.991Z,58.09
2023-03-29T20:43:38.157Z,57.78
2023-03-29T20:46:14.802Z,58.26
2023-03-29T20:48:54.647Z,58.31
2023-03-29T20:51:28.406Z,58.29
2023-03-29T20:54:02.923Z,58.59
2023-03-29T20:56:39.109Z,58.81
2023-03-29T20:59:11.089Z,59.27
2023-03-29T21:01:41.204Z,59.31
2023-03-29T21:04:11.149Z,59.27
2023-03-29T21:06:41.573Z,59.27
2023-03-29T21:09:10.045Z,60.05
2023-03-29T21:11:38.809Z,59.24
2023-03-29T21:14:06.422Z,59.29
2023-03-29T21:16:34.892Z,59.70
2023-03-29T21:19:02.389Z,59.75
2023-03-29T21:21:29.985Z,59.87
2023-03-29T21:23:57.329Z,59.92
2023-03-29T21:26:24.766Z,59.82
2023-03-29T21:28:52.431Z,60.22
2023-03-29T21:31:19.736Z,60.58
2023-03-29T21:33:47.042Z,60.29
2023-03-29T21:36:14.580Z,60.24
2023-03-29T21:38:41.892Z,60.73
2023-03-29T21:41:12.884Z,60.61
2023-03-29T21:43:40.323Z,60.91
2023-03-29T21:46:08.321Z,61.17
2023-03-29T21:48:36.411Z,61.47
2023-03-29T21:51:05.756Z,61.75
2023-03-29T21:53:33.404Z,61.93
2023-03-29T21:56:00.986Z,61.98
2023-03-29T21:58:29.307Z,62.38
2023-03-29T22:01:08.310Z,62.68
2023-03-29T22:03:38.231Z,62.95
2023-03-29T22:06:10.803Z,63.06
2023-03-29T22:08:46.923Z,63.66
2023-03-29T22:11:20.757Z,63.95
2023-03-29T22:13:48.321Z,64.32
2023-03-29T22:16:18.546Z,64.48
2023-03-29T22:18:53.004Z,64.65
2023-03-29T22:21:25.554Z,64.74
2023-03-29T22:23:55.682Z,65.14
2023-03-29T22:26:30.010Z,65.40
2023-03-29T22:28:58.875Z,65.62
2023-03-29T22:31:27.524Z,65.83
2023-03-29T22:33:56.008Z,65.86
2023-03-29T22:36:27.200Z,66.42
2023-03-29T22:38:55.134Z,66.32
2023-03-29T22:41:26.366Z,66.25
2023-03-29T22:43:56.128Z,66.77
2023-03-29T22:46:24.311Z,67.18
2023-03-29T22:48:52.635Z,67.48
2023-03-29T22:51:20.703Z,67.59
2023-03-29T22:53:48.620Z,67.96
2023-03-29T22:56:17.078Z,68.12
2023-03-29T22:58:46.238Z,67.96
2023-03-29T23:01:14.843Z,68.16
2023-03-29T23:03:43.155Z,68.68
2023-03-29T23:06:13.574Z,68.33
2023-03-29T23:08:42.069Z,68.57
2023-03-29T23:11:09.480Z,68.68
2023-03-29T23:13:37.079Z,68.98
2023-03-29T23:16:05.144Z,69.24
2023-03-29T23:18:35.104Z,69.43
2023-03-29T23:21:02.854Z,69.64
2023-03-29T23:23:30.430Z,69.88
2023-03-29T23:25:58.236Z,69.80
2023-03-29T23:28:30.744Z,70.21
2023-03-29T23:31:10.795Z,70.32
2023-03-29T23:33:44.314Z,70.41
2023-03-29T23:36:15.024Z,71.05
2023-03-29T23:38:44.094Z,70.99
2023-03-29T23:41:13.161Z,70.61
2023-03-29T23:43:43.806Z,70.52
2023-03-29T23:46:14.434Z,70.80
2023-03-29T23:48:46.266Z,70.83
2023-03-29T23:51:14.448Z,71.19
2023-03-29T23:53:42.829Z,71.35
2023-03-29T23:56:12.142Z,71.34
2023-03-29T23:58:40.471Z,72.25
